createdAt,value
2017-08-02T00:00:24.433Z,0
2017-08-02T00:01:24.750Z,0
2017-08-02T00:02:24.416Z,0
2017-08-02T00:03:24.094Z,0
2017-08-02T00:04:24.717Z,0
2017-08-02T00:05:24.691Z,0
2017-08-02T00:06:24.057Z,0
2017-08-02T00:07:24.679Z,0
2017-08-02T00:08:24.349Z,0
2017-08-02T00:09:24.647Z,0
2017-08-02T00:10:24.634Z,0
2017-08-02T00:11:24.962Z,0
2017-08-02T00:12:24.622Z,0
2017-08-02T00:13:24.604Z,0
2017-08-02T00:14:24.637Z,0
2017-08-02T00:15:24.893Z,0
2017-08-02T00:16:23.639Z,0
2017-08-02T00:17:24.880Z,0
2017-08-02T00:18:24.565Z,0
2017-08-02T00:19:24.539Z,0
2017-08-02T00:20:24.528Z,0
2017-08-02T00:21:24.203Z,0
2017-08-02T00:22:24.506Z,0
2017-08-02T00:23:24.188Z,0
2017-08-02T00:24:23.871Z,0
2017-08-02T00:25:24.482Z,0
2017-08-02T00:26:24.455Z,0
2017-08-02T00:27:24.451Z,0
2017-08-02T00:28:24.127Z,0
2017-08-02T00:29:23.744Z,0
2017-08-02T00:30:24.423Z,0
2017-08-02T00:31:23.782Z,0
2017-08-02T00:32:23.774Z,0
2017-08-02T00:33:24.067Z,0
2017-08-02T00:34:24.376Z,0
2017-08-02T00:35:24.681Z,0
2017-08-02T00:36:24.360Z,0
2017-08-02T00:37:23.715Z,0
2017-08-02T00:38:24.374Z,0
2017-08-02T00:39:24.623Z,0
2017-08-02T00:40:23.991Z,0
2017-08-02T00:41:24.609Z,0
2017-08-02T00:42:24.284Z,0
2017-08-02T00:43:24.271Z,0
2017-08-02T00:44:23.945Z,0
2017-08-02T00:45:23.620Z,0
2017-08-02T00:46:23.924Z,0
2017-08-02T00:47:23.914Z,0
2017-08-02T00:48:23.898Z,0
2017-08-02T00:49:23.890Z,0
2017-08-02T00:50:23.884Z,0
2017-08-02T00:51:23.883Z,0
2017-08-02T00:52:23.544Z,0
2017-08-02T00:53:24.470Z,0
2017-08-02T00:54:23.836Z,0
2017-08-02T00:55:24.138Z,0
2017-08-02T00:56:23.504Z,0
2017-08-02T00:57:24.115Z,0
2017-08-02T00:58:24.117Z,0
2017-08-02T00:59:23.502Z,0
2017-08-02T01:00:23.821Z,0
2017-08-02T01:01:24.070Z,0
2017-08-02T01:02:24.068Z,0
2017-08-02T01:03:24.063Z,0
2017-08-02T01:04:24.039Z,0
2017-08-02T01:05:24.026Z,0
2017-08-02T01:06:23.390Z,0
2017-08-02T01:07:23.747Z,0
2017-08-02T01:08:23.994Z,0
2017-08-02T01:09:23.981Z,0
2017-08-02T01:10:23.969Z,0
2017-08-02T01:11:23.333Z,0
2017-08-02T01:12:23.320Z,0
2017-08-02T01:13:23.347Z,0
2017-08-02T01:14:23.300Z,0
2017-08-02T01:15:23.600Z,0
2017-08-02T01:16:23.599Z,0
2017-08-02T01:17:23.895Z,0
2017-08-02T01:18:23.882Z,0
2017-08-02T01:19:23.866Z,0
2017-08-02T01:20:23.544Z,0
2017-08-02T01:21:23.858Z,0
2017-08-02T01:22:23.846Z,0
2017-08-02T01:23:23.824Z,0
2017-08-02T01:24:23.396Z,0
2017-08-02T01:25:24.112Z,0
2017-08-02T01:26:23.786Z,0
2017-08-02T01:27:24.013Z,0
2017-08-02T01:28:23.768Z,0
2017-08-02T01:29:23.447Z,0
2017-08-02T01:30:24.059Z,0
2017-08-02T01:31:24.059Z,0
2017-08-02T01:32:23.411Z,0
2017-08-02T01:33:23.098Z,0
2017-08-02T01:34:23.384Z,0
2017-08-02T01:35:23.684Z,0
2017-08-02T01:36:23.685Z,0
2017-08-02T01:37:23.558Z,0
2017-08-02T01:38:23.970Z,0
2017-08-02T01:39:23.340Z,0
2017-08-02T01:40:23.638Z,0
2017-08-02T01:41:23.006Z,0
2017-08-02T01:42:23.934Z,0
2017-08-02T01:43:23.287Z,0
2017-08-02T01:44:23.594Z,0
2017-08-02T01:45:22.956Z,0
2017-08-02T01:46:22.938Z,0
2017-08-02T01:47:23.556Z,0
2017-08-02T01:48:23.855Z,0
2017-08-02T01:49:23.226Z,0
2017-08-02T01:50:22.895Z,0
2017-08-02T01:51:23.196Z,0
2017-08-02T01:52:23.197Z,0
2017-08-02T01:53:23.795Z,0
2017-08-02T01:54:23.172Z,0
2017-08-02T01:55:23.156Z,0
2017-08-02T01:56:23.765Z,0
2017-08-02T01:57:23.445Z,0
2017-08-02T01:58:22.809Z,0
2017-08-02T01:59:23.728Z,0
2017-08-02T02:00:23.093Z,0
2017-08-02T02:01:23.441Z,0
2017-08-02T02:02:23.071Z,0
2017-08-02T02:03:23.059Z,0
2017-08-02T02:04:23.679Z,0
2017-08-02T02:05:23.044Z,0
2017-08-02T02:06:23.654Z,0
2017-08-02T02:07:23.645Z,0
2017-08-02T02:08:23.025Z,0
2017-08-02T02:09:22.996Z,0
2017-08-02T02:10:23.297Z,0
2017-08-02T02:11:23.328Z,0
2017-08-02T02:12:23.279Z,0
2017-08-02T02:13:23.261Z,0
2017-08-02T02:14:23.246Z,0
2017-08-02T02:15:22.934Z,0
2017-08-02T02:16:23.223Z,0
2017-08-02T02:17:22.902Z,0
2017-08-02T02:18:22.891Z,0
2017-08-02T02:19:23.196Z,0
2017-08-02T02:20:23.177Z,0
2017-08-02T02:21:22.626Z,0
2017-08-02T02:22:22.840Z,0
2017-08-02T02:23:23.147Z,0
2017-08-02T02:24:22.828Z,0
2017-08-02T02:25:23.115Z,0
2017-08-02T02:26:22.493Z,0
2017-08-02T02:27:23.125Z,0
2017-08-02T02:28:22.778Z,0
2017-08-02T02:29:22.763Z,0
2017-08-02T02:30:23.072Z,0
2017-08-02T02:31:22.783Z,0
2017-08-02T02:32:23.055Z,0
2017-08-02T02:33:23.038Z,0
2017-08-02T02:34:23.354Z,0
2017-08-02T02:35:23.329Z,0
2017-08-02T02:36:22.995Z,0
2017-08-02T02:37:22.996Z,0
2017-08-02T02:38:22.357Z,0
2017-08-02T02:39:22.025Z,0
2017-08-02T02:40:22.999Z,0
2017-08-02T02:41:23.267Z,0
2017-08-02T02:42:22.615Z,0
2017-08-02T02:43:22.604Z,0
2017-08-02T02:44:22.919Z,0
2017-08-02T02:45:22.897Z,0
2017-08-02T02:46:23.205Z,0
2017-08-02T02:47:22.555Z,0
2017-08-02T02:48:23.178Z,0
2017-08-02T02:49:22.544Z,0
2017-08-02T02:50:22.529Z,0
2017-08-02T02:51:22.566Z,0
2017-08-02T02:52:22.824Z,0
2017-08-02T02:53:23.025Z,0
2017-08-02T02:54:22.479Z,0
2017-08-02T02:55:22.471Z,0
2017-08-02T02:56:22.464Z,0
2017-08-02T02:57:22.771Z,0
2017-08-02T02:58:23.057Z,0
2017-08-02T02:59:22.419Z,0
2017-08-02T03:00:22.723Z,0
2017-08-02T03:01:23.026Z,0
2017-08-02T03:02:22.395Z,0
2017-08-02T03:03:22.383Z,0
2017-08-02T03:04:22.364Z,0
2017-08-02T03:05:22.676Z,0
2017-08-02T03:06:22.964Z,0
2017-08-02T03:07:22.019Z,0
2017-08-02T03:08:22.339Z,0
2017-08-02T03:09:22.634Z,0
2017-08-02T03:10:22.301Z,0
2017-08-02T03:11:22.917Z,0
2017-08-02T03:12:22.276Z,0
2017-08-02T03:13:22.578Z,0
2017-08-02T03:14:22.564Z,0
2017-08-02T03:15:22.550Z,0
2017-08-02T03:16:22.879Z,0
2017-08-02T03:17:22.215Z,0
2017-08-02T03:18:22.514Z,0
2017-08-02T03:19:22.504Z,0
2017-08-02T03:20:22.517Z,0
2017-08-02T03:21:22.171Z,0
2017-08-02T03:22:22.177Z,0
2017-08-02T03:23:22.145Z,0
2017-08-02T03:24:22.969Z,0
2017-08-02T03:25:22.475Z,0
2017-08-02T03:26:22.733Z,0
2017-08-02T03:27:22.108Z,0
2017-08-02T03:28:22.394Z,0
2017-08-02T03:29:22.389Z,0
2017-08-02T03:30:22.390Z,0
2017-08-02T03:31:21.437Z,0
2017-08-02T03:32:22.037Z,0
2017-08-02T03:33:22.031Z,0
2017-08-02T03:34:22.337Z,0
2017-08-02T03:35:22.321Z,0
2017-08-02T03:36:21.998Z,0
2017-08-02T03:37:21.984Z,0
2017-08-02T03:38:21.975Z,0
2017-08-02T03:39:21.966Z,0
2017-08-02T03:40:22.264Z,0
2017-08-02T03:41:22.581Z,0
2017-08-02T03:42:22.234Z,0
2017-08-02T03:43:21.615Z,0
2017-08-02T03:44:22.217Z,0
2017-08-02T03:45:21.898Z,0
2017-08-02T03:46:21.883Z,0
2017-08-02T03:47:22.499Z,0
2017-08-02T03:48:22.188Z,0
2017-08-02T03:49:21.862Z,0
2017-08-02T03:50:22.154Z,0
2017-08-02T03:51:21.825Z,0
2017-08-02T03:52:21.556Z,0
2017-08-02T03:53:22.452Z,0
2017-08-02T03:54:22.100Z,0
2017-08-02T03:55:21.465Z,0
2017-08-02T03:56:22.404Z,0
2017-08-02T03:57:22.094Z,0
2017-08-02T03:58:21.771Z,0
2017-08-02T03:59:22.055Z,0
2017-08-02T04:00:21.422Z,0
2017-08-02T04:01:21.721Z,5
2017-08-02T04:02:22.400Z,5
2017-08-02T04:03:21.690Z,5
2017-08-02T04:04:21.363Z,5
2017-08-02T04:05:21.665Z,5
2017-08-02T04:06:21.351Z,5
2017-08-02T04:07:22.275Z,5
2017-08-02T04:08:21.632Z,5
2017-08-02T04:09:21.622Z,5
2017-08-02T04:10:22.251Z,10
2017-08-02T04:11:21.598Z,10
2017-08-02T04:12:21.903Z,10
2017-08-02T04:13:21.898Z,10
2017-08-02T04:14:21.878Z,10
2017-08-02T04:15:21.236Z,10
2017-08-02T04:16:21.536Z,10
2017-08-02T04:17:21.580Z,10
2017-08-02T04:18:21.203Z,10
2017-08-02T04:19:21.816Z,15
2017-08-02T04:20:21.809Z,15
2017-08-02T04:21:21.485Z,15
2017-08-02T04:22:21.800Z,15
2017-08-02T04:23:21.780Z,15
2017-08-02T04:24:21.451Z,20
2017-08-02T04:25:22.063Z,20
2017-08-02T04:26:21.742Z,20
2017-08-02T04:27:21.419Z,20
2017-08-02T04:28:21.407Z,20
2017-08-02T04:29:21.401Z,20
2017-08-02T04:30:21.712Z,20
2017-08-02T04:31:21.370Z,20
2017-08-02T04:32:21.361Z,25
2017-08-02T04:33:21.428Z,25
2017-08-02T04:34:21.028Z,25
2017-08-02T04:35:21.330Z,25
2017-08-02T04:36:21.342Z,25
2017-08-02T04:37:21.934Z,25
2017-08-02T04:38:20.664Z,25
2017-08-02T04:39:21.286Z,25
2017-08-02T04:40:20.644Z,25
2017-08-02T04:41:21.257Z,25
2017-08-02T04:42:21.872Z,30
2017-08-02T04:43:20.922Z,30
2017-08-02T04:44:21.537Z,30
2017-08-02T04:45:21.850Z,30
2017-08-02T04:46:21.521Z,35
2017-08-02T04:47:21.194Z,35
2017-08-02T04:48:21.502Z,35
2017-08-02T04:49:21.479Z,35
2017-08-02T04:50:21.467Z,35
2017-08-02T04:51:21.146Z,35
2017-08-02T04:52:21.457Z,35
2017-08-02T04:53:21.132Z,35
2017-08-02T04:54:21.432Z,35
2017-08-02T04:55:21.417Z,35
2017-08-02T04:56:21.414Z,40
2017-08-02T04:57:21.080Z,40
2017-08-02T04:58:21.066Z,40
2017-08-02T04:59:21.364Z,40
2017-08-02T05:00:21.052Z,45
2017-08-02T05:01:21.681Z,45
2017-08-02T05:02:21.371Z,45
2017-08-02T05:03:20.711Z,45
2017-08-02T05:04:21.008Z,45
2017-08-02T05:05:20.680Z,45
2017-08-02T05:06:20.358Z,45
2017-08-02T05:07:21.588Z,45
2017-08-02T05:08:21.588Z,45
2017-08-02T05:09:20.959Z,45
2017-08-02T05:10:21.251Z,40
2017-08-02T05:11:20.949Z,40
2017-08-02T05:12:20.922Z,40
2017-08-02T05:13:20.902Z,40
2017-08-02T05:14:20.893Z,45
2017-08-02T05:15:21.394Z,45
2017-08-02T05:16:21.202Z,50
2017-08-02T05:17:21.184Z,50
2017-08-02T05:18:21.180Z,50
2017-08-02T05:19:20.833Z,50
2017-08-02T05:20:21.139Z,50
2017-08-02T05:21:21.136Z,50
2017-08-02T05:22:20.819Z,50
2017-08-02T05:23:21.115Z,55
2017-08-02T05:24:20.675Z,55
2017-08-02T05:25:21.102Z,55
2017-08-02T05:26:20.768Z,50
2017-08-02T05:27:21.074Z,55
2017-08-02T05:28:21.059Z,55
2017-08-02T05:29:21.355Z,55
2017-08-02T05:30:21.035Z,55
2017-08-02T05:31:21.022Z,55
2017-08-02T05:32:20.697Z,55
2017-08-02T05:33:20.701Z,55
2017-08-02T05:34:20.998Z,55
2017-08-02T05:35:20.984Z,55
2017-08-02T05:36:20.967Z,60
2017-08-02T05:37:20.959Z,60
2017-08-02T05:38:20.642Z,65
2017-08-02T05:39:20.946Z,70
2017-08-02T05:40:20.967Z,65
2017-08-02T05:41:20.920Z,70
2017-08-02T05:42:20.285Z,70
2017-08-02T05:43:20.899Z,70
2017-08-02T05:44:21.220Z,70
2017-08-02T05:45:20.566Z,70
2017-08-02T05:46:20.559Z,65
2017-08-02T05:47:20.555Z,60
2017-08-02T05:48:20.849Z,55
2017-08-02T05:49:20.849Z,45
2017-08-02T05:50:20.519Z,45
2017-08-02T05:51:20.517Z,45
2017-08-02T05:52:20.503Z,40
2017-08-02T05:53:20.481Z,40
2017-08-02T05:54:20.161Z,40
2017-08-02T05:55:20.775Z,40
2017-08-02T05:56:20.779Z,40
2017-08-02T05:57:20.128Z,45
2017-08-02T05:58:20.744Z,45
2017-08-02T05:59:20.128Z,50
2017-08-02T06:00:20.421Z,50
2017-08-02T06:01:20.723Z,50
2017-08-02T06:02:20.386Z,50
2017-08-02T06:03:20.415Z,50
2017-08-02T06:04:21.010Z,45
2017-08-02T06:05:20.368Z,45
2017-08-02T06:06:20.975Z,45
2017-08-02T06:07:20.976Z,45
2017-08-02T06:08:20.678Z,45
2017-08-02T06:09:20.326Z,45
2017-08-02T06:10:20.312Z,40
2017-08-02T06:11:20.614Z,40
2017-08-02T06:12:20.605Z,40
2017-08-02T06:13:20.288Z,40
2017-08-02T06:14:20.900Z,40
2017-08-02T06:15:20.568Z,40
2017-08-02T06:16:20.253Z,45
2017-08-02T06:17:20.564Z,50
2017-08-02T06:18:21.062Z,55
2017-08-02T06:19:20.222Z,55
2017-08-02T06:20:20.221Z,50
2017-08-02T06:21:20.227Z,45
2017-08-02T06:22:20.194Z,35
2017-08-02T06:23:20.490Z,35
2017-08-02T06:24:20.481Z,35
2017-08-02T06:25:19.535Z,35
2017-08-02T06:26:20.157Z,35
2017-08-02T06:27:20.143Z,30
2017-08-02T06:28:20.130Z,30
2017-08-02T06:29:20.438Z,30
2017-08-02T06:30:20.484Z,25
2017-08-02T06:31:20.414Z,25
2017-08-02T06:32:20.115Z,20
2017-08-02T06:33:20.395Z,20
2017-08-02T06:34:20.086Z,20
2017-08-02T06:35:20.373Z,25
2017-08-02T06:36:20.368Z,25
2017-08-02T06:37:20.370Z,25
2017-08-02T06:38:20.033Z,25
2017-08-02T06:39:20.020Z,25
2017-08-02T06:40:20.011Z,20
2017-08-02T06:41:19.699Z,20
2017-08-02T06:42:19.985Z,20
2017-08-02T06:43:19.671Z,15
2017-08-02T06:44:20.602Z,15
2017-08-02T06:45:20.009Z,15
2017-08-02T06:46:19.631Z,15
2017-08-02T06:47:19.316Z,20
2017-08-02T06:48:19.927Z,20
2017-08-02T06:49:20.251Z,20
2017-08-02T06:50:19.910Z,20
2017-08-02T06:51:19.907Z,20
2017-08-02T06:52:19.890Z,20
2017-08-02T06:53:20.191Z,20
2017-08-02T06:54:20.183Z,20
2017-08-02T06:55:20.484Z,20
2017-08-02T06:56:20.485Z,20
2017-08-02T06:57:19.532Z,20
2017-08-02T06:58:20.475Z,25
2017-08-02T06:59:19.858Z,35
2017-08-02T07:00:19.865Z,45
2017-08-02T07:01:19.865Z,60
2017-08-02T07:02:20.415Z,70
2017-08-02T07:03:19.791Z,80
2017-08-02T07:04:19.771Z,100
2017-08-02T07:05:19.770Z,120
2017-08-02T07:06:20.386Z,125
2017-08-02T07:07:20.064Z,125
2017-08-02T07:08:19.728Z,130
2017-08-02T07:09:20.045Z,125
2017-08-02T07:10:20.029Z,115
2017-08-02T07:11:20.016Z,110
2017-08-02T07:12:20.010Z,75
2017-08-02T07:13:20.005Z,100
2017-08-02T07:14:19.678Z,90
2017-08-02T07:15:19.983Z,85
2017-08-02T07:16:19.657Z,80
2017-08-02T07:17:20.273Z,75
2017-08-02T07:18:19.338Z,80
2017-08-02T07:19:19.626Z,110
2017-08-02T07:20:19.934Z,150
2017-08-02T07:21:19.927Z,185
2017-08-02T07:22:19.595Z,210
2017-08-02T07:23:19.598Z,250
2017-08-02T07:24:19.785Z,250
2017-08-02T07:25:19.890Z,255
2017-08-02T07:26:19.565Z,250
2017-08-02T07:27:20.198Z,220
2017-08-02T07:28:19.555Z,240
2017-08-02T07:29:19.849Z,245
2017-08-02T07:30:19.524Z,265
2017-08-02T07:31:20.157Z,275
2017-08-02T07:32:20.154Z,280
2017-08-02T07:33:19.813Z,280
2017-08-02T07:34:19.502Z,275
2017-08-02T07:35:19.478Z,400
2017-08-02T07:36:19.788Z,600
2017-08-02T07:37:20.101Z,355
2017-08-02T07:38:19.474Z,260
2017-08-02T07:39:19.994Z,215
2017-08-02T07:40:19.753Z,160
2017-08-02T07:41:19.760Z,210
2017-08-02T07:42:19.433Z,280
2017-08-02T07:43:19.745Z,330
2017-08-02T07:44:20.031Z,300
2017-08-02T07:45:19.091Z,360
2017-08-02T07:46:19.761Z,695
2017-08-02T07:47:19.740Z,605
2017-08-02T07:48:19.710Z,440
2017-08-02T07:49:19.699Z,375
2017-08-02T07:50:19.678Z,280
2017-08-02T07:51:19.358Z,265
2017-08-02T07:52:19.672Z,285
2017-08-02T07:53:19.973Z,625
2017-08-02T07:54:19.354Z,280
2017-08-02T07:55:19.338Z,335
2017-08-02T07:56:19.641Z,335
2017-08-02T07:57:19.322Z,595
2017-08-02T07:58:19.324Z,630
2017-08-02T07:59:19.929Z,845
2017-08-02T08:00:19.625Z,760
2017-08-02T08:01:19.925Z,605
2017-08-02T08:02:19.281Z,785
2017-08-02T08:03:19.596Z,775
2017-08-02T08:04:19.602Z,705
2017-08-02T08:05:18.650Z,730
2017-08-02T08:06:18.950Z,665
2017-08-02T08:07:19.578Z,540
2017-08-02T08:08:18.950Z,575
2017-08-02T08:09:19.568Z,625
2017-08-02T08:10:19.551Z,495
2017-08-02T08:11:19.862Z,440
2017-08-02T08:12:19.229Z,395
2017-08-02T08:13:19.847Z,400
2017-08-02T08:14:19.530Z,575
2017-08-02T08:15:19.522Z,785
2017-08-02T08:16:19.568Z,705
2017-08-02T08:17:19.522Z,665
2017-08-02T08:18:19.519Z,560
2017-08-02T08:19:19.509Z,570
2017-08-02T08:20:19.505Z,780
2017-08-02T08:21:19.498Z,685
2017-08-02T08:22:19.492Z,795
2017-08-02T08:23:18.854Z,730
2017-08-02T08:24:19.482Z,675
2017-08-02T08:25:19.493Z,735
2017-08-02T08:26:19.153Z,480
2017-08-02T08:27:19.162Z,415
2017-08-02T08:28:19.465Z,330
2017-08-02T08:29:19.144Z,270
2017-08-02T08:30:19.469Z,340
2017-08-02T08:31:19.449Z,340
2017-08-02T08:32:19.754Z,405
2017-08-02T08:33:19.147Z,275
2017-08-02T08:34:18.497Z,380
2017-08-02T08:35:18.483Z,750
2017-08-02T08:36:19.428Z,300
2017-08-02T08:37:19.416Z,355
2017-08-02T08:38:19.100Z,545
2017-08-02T08:39:19.405Z,515
2017-08-02T08:40:19.081Z,340
2017-08-02T08:41:19.727Z,400
2017-08-02T08:42:19.087Z,300
2017-08-02T08:43:19.390Z,225
2017-08-02T08:44:19.067Z,230
2017-08-02T08:45:19.373Z,250
2017-08-02T08:46:19.052Z,275
2017-08-02T08:47:18.743Z,335
2017-08-02T08:48:19.083Z,265
2017-08-02T08:49:19.354Z,395
2017-08-02T08:50:19.349Z,340
2017-08-02T08:51:19.651Z,305
2017-08-02T08:52:19.029Z,205
2017-08-02T08:53:18.697Z,225
2017-08-02T08:54:19.012Z,245
2017-08-02T08:55:19.004Z,305
2017-08-02T08:56:19.309Z,330
2017-08-02T08:57:18.679Z,335
2017-08-02T08:58:18.883Z,400
2017-08-02T08:59:18.972Z,390
2017-08-02T09:00:19.285Z,370
2017-08-02T09:01:19.285Z,395
2017-08-02T09:02:19.604Z,340
2017-08-02T09:03:18.664Z,410
2017-08-02T09:04:18.953Z,395
2017-08-02T09:05:18.936Z,370
2017-08-02T09:06:18.929Z,330
2017-08-02T09:07:18.936Z,375
2017-08-02T09:08:18.931Z,395
2017-08-02T09:09:19.219Z,410
2017-08-02T09:10:19.222Z,440
2017-08-02T09:11:18.903Z,485
2017-08-02T09:12:19.217Z,485
2017-08-02T09:13:19.567Z,445
2017-08-02T09:14:19.199Z,400
2017-08-02T09:15:18.892Z,335
2017-08-02T09:16:18.883Z,245
2017-08-02T09:17:18.561Z,220
2017-08-02T09:18:19.177Z,230
2017-08-02T09:19:19.487Z,315
2017-08-02T09:20:19.169Z,430
2017-08-02T09:21:18.850Z,410
2017-08-02T09:22:19.160Z,400
2017-08-02T09:23:18.528Z,440
2017-08-02T09:24:19.672Z,345
2017-08-02T09:25:18.839Z,310
2017-08-02T09:26:18.838Z,340
2017-08-02T09:27:19.146Z,390
2017-08-02T09:28:18.498Z,420
2017-08-02T09:29:19.137Z,375
2017-08-02T09:30:18.814Z,300
2017-08-02T09:31:19.429Z,275
2017-08-02T09:32:18.783Z,300
2017-08-02T09:33:19.097Z,325
2017-08-02T09:34:19.124Z,255
2017-08-02T09:35:19.416Z,220
2017-08-02T09:36:18.469Z,200
2017-08-02T09:37:18.445Z,255
2017-08-02T09:38:18.750Z,385
2017-08-02T09:39:18.761Z,455
2017-08-02T09:40:18.435Z,425
2017-08-02T09:41:19.364Z,400
2017-08-02T09:42:19.091Z,365
2017-08-02T09:43:18.712Z,380
2017-08-02T09:44:18.719Z,405
2017-08-02T09:45:18.702Z,370
2017-08-02T09:46:18.712Z,340
2017-08-02T09:47:18.700Z,340
2017-08-02T09:48:18.403Z,365
2017-08-02T09:49:19.010Z,375
2017-08-02T09:50:18.697Z,435
2017-08-02T09:51:19.291Z,380
2017-08-02T09:52:18.668Z,400
2017-08-02T09:53:19.024Z,355
2017-08-02T09:54:18.665Z,355
2017-08-02T09:55:19.274Z,510
2017-08-02T09:56:18.645Z,340
2017-08-02T09:57:18.947Z,405
2017-08-02T09:58:18.625Z,310
2017-08-02T09:59:18.934Z,325
2017-08-02T10:00:18.619Z,315
2017-08-02T10:01:18.610Z,305
2017-08-02T10:02:18.941Z,220
2017-08-02T10:03:19.224Z,335
2017-08-02T10:04:18.906Z,305
2017-08-02T10:05:18.946Z,285
2017-08-02T10:06:18.267Z,305
2017-08-02T10:07:18.891Z,320
2017-08-02T10:08:19.193Z,390
2017-08-02T10:09:18.880Z,510
2017-08-02T10:10:19.188Z,1245
2017-08-02T10:11:18.557Z,750
2017-08-02T10:12:18.545Z,770
2017-08-02T10:13:18.856Z,585
2017-08-02T10:14:19.159Z,540
2017-08-02T10:15:19.176Z,510
2017-08-02T10:16:18.857Z,535
2017-08-02T10:17:18.521Z,635
2017-08-02T10:18:18.843Z,455
2017-08-02T10:19:19.140Z,470
2017-08-02T10:20:18.511Z,430
2017-08-02T10:21:18.189Z,585
2017-08-02T10:22:18.510Z,1100
2017-08-02T10:23:18.872Z,655
2017-08-02T10:24:18.811Z,660
2017-08-02T10:25:19.108Z,1270
2017-08-02T10:26:18.166Z,610
2017-08-02T10:27:18.790Z,1350
2017-08-02T10:28:18.787Z,820
2017-08-02T10:29:18.470Z,970
2017-08-02T10:30:18.162Z,585
2017-08-02T10:31:18.144Z,1390
2017-08-02T10:32:18.461Z,2060
2017-08-02T10:33:18.762Z,1565
2017-08-02T10:34:18.757Z,530
2017-08-02T10:35:18.756Z,750
2017-08-02T10:36:18.449Z,2030
2017-08-02T10:37:18.758Z,1710
2017-08-02T10:38:18.759Z,1455
2017-08-02T10:39:18.768Z,980
2017-08-02T10:40:18.441Z,1265
2017-08-02T10:41:18.125Z,685
2017-08-02T10:42:18.432Z,890
2017-08-02T10:43:18.749Z,1270
2017-08-02T10:44:19.054Z,1390
2017-08-02T10:45:19.058Z,1435
2017-08-02T10:46:18.126Z,1300
2017-08-02T10:47:18.422Z,990
2017-08-02T10:48:18.433Z,935
2017-08-02T10:49:18.426Z,975
2017-08-02T10:50:18.731Z,955
2017-08-02T10:51:18.731Z,700
2017-08-02T10:52:18.735Z,610
2017-08-02T10:53:18.425Z,615
2017-08-02T10:54:18.116Z,600
2017-08-02T10:55:18.736Z,630
2017-08-02T10:56:18.740Z,640
2017-08-02T10:57:18.420Z,570
2017-08-02T10:58:18.742Z,460
2017-08-02T10:59:19.047Z,440
2017-08-02T11:00:18.404Z,445
2017-08-02T11:01:18.428Z,420
2017-08-02T11:02:18.739Z,385
2017-08-02T11:03:18.718Z,430
2017-08-02T11:04:19.030Z,465
2017-08-02T11:05:18.715Z,525
2017-08-02T11:06:19.025Z,745
2017-08-02T11:07:18.703Z,500
2017-08-02T11:08:18.396Z,545
2017-08-02T11:09:18.704Z,735
2017-08-02T11:10:18.391Z,680
2017-08-02T11:11:18.399Z,565
2017-08-02T11:12:18.063Z,570
2017-08-02T11:13:19.008Z,925
2017-08-02T11:14:18.695Z,615
2017-08-02T11:15:18.381Z,805
2017-08-02T11:16:18.369Z,1070
2017-08-02T11:17:18.362Z,1175
2017-08-02T11:18:18.690Z,1640
2017-08-02T11:19:18.363Z,1275
2017-08-02T11:20:18.677Z,550
2017-08-02T11:21:18.672Z,395
2017-08-02T11:22:18.665Z,530
2017-08-02T11:23:18.973Z,700
2017-08-02T11:24:19.583Z,750
2017-08-02T11:25:18.977Z,1165
2017-08-02T11:26:18.654Z,495
2017-08-02T11:27:18.334Z,475
2017-08-02T11:28:18.650Z,470
2017-08-02T11:29:18.339Z,430
2017-08-02T11:30:18.335Z,390
2017-08-02T11:31:18.840Z,425
2017-08-02T11:32:18.642Z,500
2017-08-02T11:33:18.642Z,660
2017-08-02T11:34:18.946Z,1130
2017-08-02T11:35:18.628Z,1360
2017-08-02T11:36:18.322Z,1680
2017-08-02T11:37:18.628Z,2225
2017-08-02T11:38:18.635Z,2240
2017-08-02T11:39:18.623Z,1625
2017-08-02T11:40:18.001Z,1620
2017-08-02T11:41:18.626Z,1265
2017-08-02T11:42:18.924Z,845
2017-08-02T11:43:18.331Z,860
2017-08-02T11:44:18.633Z,625
2017-08-02T11:45:18.934Z,640
2017-08-02T11:46:18.300Z,1305
2017-08-02T11:47:18.304Z,650
2017-08-02T11:48:18.623Z,675
2017-08-02T11:49:18.379Z,1670
2017-08-02T11:50:18.616Z,915
2017-08-02T11:51:18.303Z,560
2017-08-02T11:52:17.993Z,610
2017-08-02T11:53:18.304Z,555
2017-08-02T11:54:18.617Z,475
2017-08-02T11:55:17.995Z,415
2017-08-02T11:56:17.684Z,395
2017-08-02T11:57:18.958Z,395
2017-08-02T11:58:18.612Z,395
2017-08-02T11:59:18.933Z,390
2017-08-02T12:00:18.923Z,390
2017-08-02T12:01:18.605Z,385
2017-08-02T12:02:18.609Z,375
2017-08-02T12:03:18.610Z,365
2017-08-02T12:04:18.603Z,355
2017-08-02T12:05:17.972Z,345
2017-08-02T12:06:18.290Z,320
2017-08-02T12:07:18.632Z,285
2017-08-02T12:08:18.928Z,265
2017-08-02T12:09:18.593Z,260
2017-08-02T12:10:18.597Z,255
2017-08-02T12:11:19.131Z,250
2017-08-02T12:12:18.627Z,240
2017-08-02T12:13:18.582Z,240
2017-08-02T12:14:18.305Z,240
2017-08-02T12:15:18.774Z,240
2017-08-02T12:16:18.272Z,235
2017-08-02T12:17:17.636Z,235
2017-08-02T12:18:18.560Z,235
2017-08-02T12:19:18.288Z,230
2017-08-02T12:20:18.259Z,235
2017-08-02T12:21:18.874Z,260
2017-08-02T12:22:18.570Z,285
2017-08-02T12:23:18.233Z,310
2017-08-02T12:24:18.228Z,345
2017-08-02T12:25:18.849Z,395
2017-08-02T12:26:18.211Z,500
2017-08-02T12:27:18.524Z,525
2017-08-02T12:28:17.895Z,955
2017-08-02T12:29:18.566Z,1115
2017-08-02T12:30:18.195Z,1695
2017-08-02T12:31:18.840Z,1055
2017-08-02T12:32:17.878Z,795
2017-08-02T12:33:17.881Z,535
2017-08-02T12:34:18.192Z,575
2017-08-02T12:35:18.184Z,685
2017-08-02T12:36:17.868Z,955
2017-08-02T12:37:18.176Z,765
2017-08-02T12:38:18.181Z,835
2017-08-02T12:39:18.483Z,910
2017-08-02T12:40:18.489Z,785
2017-08-02T12:41:18.798Z,870
2017-08-02T12:42:18.471Z,1205
2017-08-02T12:43:17.846Z,1005
2017-08-02T12:44:18.154Z,1160
2017-08-02T12:45:17.872Z,855
2017-08-02T12:46:17.876Z,1155
2017-08-02T12:47:18.177Z,1240
2017-08-02T12:48:18.469Z,1235
2017-08-02T12:49:18.153Z,1190
2017-08-02T12:50:18.457Z,995
2017-08-02T12:51:18.457Z,710
2017-08-02T12:52:18.768Z,700
2017-08-02T12:53:18.772Z,1035
2017-08-02T12:54:18.453Z,1120
2017-08-02T12:55:18.457Z,1475
2017-08-02T12:56:18.164Z,1975
2017-08-02T12:57:18.461Z,1880
2017-08-02T12:58:17.531Z,1020
2017-08-02T12:59:18.517Z,750
2017-08-02T13:00:18.449Z,690
2017-08-02T13:01:18.145Z,575
2017-08-02T13:02:18.147Z,570
2017-08-02T13:03:17.837Z,630
2017-08-02T13:04:18.764Z,515
2017-08-02T13:05:18.144Z,505
2017-08-02T13:06:18.141Z,510
2017-08-02T13:07:18.486Z,515
2017-08-02T13:08:18.464Z,475
2017-08-02T13:09:18.455Z,450
2017-08-02T13:10:17.833Z,425
2017-08-02T13:11:18.770Z,400
2017-08-02T13:12:18.452Z,415
2017-08-02T13:13:18.457Z,440
2017-08-02T13:14:17.836Z,425
2017-08-02T13:15:18.146Z,420
2017-08-02T13:16:17.822Z,455
2017-08-02T13:17:18.153Z,535
2017-08-02T13:18:18.135Z,865
2017-08-02T13:19:18.752Z,695
2017-08-02T13:20:17.868Z,665
2017-08-02T13:21:18.449Z,655
2017-08-02T13:22:18.141Z,725
2017-08-02T13:23:17.814Z,885
2017-08-02T13:24:18.753Z,1255
2017-08-02T13:25:18.634Z,1550
2017-08-02T13:26:18.435Z,1565
2017-08-02T13:27:17.813Z,710
2017-08-02T13:28:18.444Z,675
2017-08-02T13:29:18.437Z,685
2017-08-02T13:30:18.111Z,1450
2017-08-02T13:31:18.424Z,585
2017-08-02T13:32:18.428Z,470
2017-08-02T13:33:18.113Z,415
2017-08-02T13:34:18.448Z,370
2017-08-02T13:35:18.424Z,345
2017-08-02T13:36:18.465Z,330
2017-08-02T13:37:17.796Z,325
2017-08-02T13:38:18.420Z,305
2017-08-02T13:39:18.101Z,295
2017-08-02T13:40:18.424Z,310
2017-08-02T13:41:17.844Z,335
2017-08-02T13:42:18.418Z,345
2017-08-02T13:43:18.413Z,355
2017-08-02T13:44:18.411Z,375
2017-08-02T13:45:18.404Z,360
2017-08-02T13:46:18.713Z,330
2017-08-02T13:47:17.786Z,275
2017-08-02T13:48:18.717Z,240
2017-08-02T13:49:18.719Z,240
2017-08-02T13:50:18.099Z,265
2017-08-02T13:51:18.395Z,285
2017-08-02T13:52:18.082Z,300
2017-08-02T13:53:18.705Z,295
2017-08-02T13:54:17.761Z,280
2017-08-02T13:55:18.431Z,270
2017-08-02T13:56:18.378Z,265
2017-08-02T13:57:18.377Z,280
2017-08-02T13:58:18.373Z,280
2017-08-02T13:59:18.379Z,275
2017-08-02T14:00:17.427Z,260
2017-08-02T14:01:18.677Z,245
2017-08-02T14:02:17.736Z,245
2017-08-02T14:03:18.354Z,250
2017-08-02T14:04:18.685Z,245
2017-08-02T14:05:18.347Z,240
2017-08-02T14:06:18.659Z,230
2017-08-02T14:07:17.710Z,205